Time;durP1;ratioP1;P1;durP2;ratioP2;P2;SDS_P1;SDS_P2;PMS_P1;PMS_P2;Temp;Humidity;BMP_temperature;BMP_pressure;BME280_temperature;BME280_humidity;BME280_pressure;Samples;Min_cycle;Max_cycle;Signal;HPM_P1;HPM_P2
2021/06/03 00:00:29;;;;;;;7.00;6.40;;;22.00;83.30;;;;;;5050570;28;20538;-84
2021/06/03 00:02:57;;;;;;;6.60;6.20;;;22.00;82.60;;;;;;5034015;28;20525;-83
2021/06/03 00:05:31;;;;;;;6.73;6.23;;;22.00;82.50;;;;;;5023518;28;20444;-83
2021/06/03 00:07:57;;;;;;;6.90;6.40;;;22.00;83.70;;;;;;5045171;28;20434;-82
2021/06/03 00:10:29;;;;;;;7.60;6.83;;;22.10;84.70;;;;;;5056892;28;20782;-83
2021/06/03 00:12:56;;;;;;;8.67;7.77;;;22.00;86.10;;;;;;5039720;28;20425;-82
2021/06/03 00:15:24;;;;;;;8.53;6.87;;;22.00;94.00;;;;;;5042388;28;20499;-82
2021/06/03 00:17:56;;;;;;;7.23;6.73;;;22.00;99.20;;;;;;5066777;28;20761;-82
2021/06/03 00:20:25;;;;;;;9.57;7.37;;;21.80;99.90;;;;;;5036875;28;20457;-84
2021/06/03 00:22:53;;;;;;;7.93;6.97;;;21.70;99.90;;;;;;5032203;28;20431;-83
2021/06/03 00:25:20;;;;;;;10.80;7.20;;;21.50;99.90;;;;;;5061076;28;20442;-84
2021/06/03 00:27:46;;;;;;;9.10;6.73;;;21.40;99.90;;;;;;5041460;28;20441;-83
2021/06/03 00:30:15;;;;;;;8.53;7.53;;;21.20;99.90;;;;;;5026779;28;20947;-83
2021/06/03 00:32:42;;;;;;;8.07;7.40;;;21.10;99.90;;;;;;5026389;28;20901;-83
2021/06/03 00:35:09;;;;;;;7.83;7.13;;;21.00;99.90;;;;;;5041845;28;20774;-84
2021/06/03 00:37:35;;;;;;;7.80;7.10;;;20.90;99.90;;;;;;5053902;28;20448;-84
2021/06/03 00:40:12;;;;;;;8.13;7.33;;;20.80;99.90;;;;;;5058812;28;20808;-83
2021/06/03 00:42:40;;;;;;;7.50;6.80;;;20.70;99.90;;;;;;5054473;28;20513;-83
2021/06/03 00:45:09;;;;;;;9.23;7.50;;;20.60;99.90;;;;;;5033214;28;21876;-83
2021/06/03 00:47:38;;;;;;;7.33;6.60;;;20.50;99.90;;;;;;5060608;28;20429;-83
2021/06/03 00:50:11;;;;;;;7.20;6.20;;;20.50;99.90;;;;;;5050206;28;20816;-83
2021/06/03 00:52:37;;;;;;;7.70;7.00;;;20.40;99.90;;;;;;5068419;28;20422;-83
2021/06/03 00:55:05;;;;;;;8.53;6.57;;;20.30;99.90;;;;;;5047308;28;20429;-84
2021/06/03 00:57:31;;;;;;;6.77;6.10;;;20.30;99.90;;;;;;5042055;28;20782;-83
2021/06/03 00:59:59;;;;;;;11.60;7.37;;;20.30;99.90;;;;;;5056022;28;20996;-83
2021/06/03 01:02:30;;;;;;;6.73;6.20;;;20.20;99.90;;;;;;5053393;28;20498;-83
2021/06/03 01:04:58;;;;;;;6.70;6.10;;;20.20;99.90;;;;;;5044318;28;20430;-83
2021/06/03 01:07:27;;;;;;;7.03;6.27;;;20.20;99.90;;;;;;5048178;28;20426;-83
2021/06/03 01:10:12;;;;;;;7.27;6.60;;;20.10;99.90;;;;;;5032854;28;20478;-84
2021/06/03 01:13:00;;;;;;;7.03;6.43;;;20.10;99.90;;;;;;5041321;28;20448;-83
2021/06/03 01:15:27;;;;;;;7.57;6.23;;;20.00;99.90;;;;;;5022174;28;20603;-84
2021/06/03 01:18:00;;;;;;;7.47;6.63;;;20.00;99.90;;;;;;5053072;28;20436;-83
2021/06/03 01:20:26;;;;;;;6.63;6.00;;;20.00;99.90;;;;;;5028141;28;20439;-83
2021/06/03 01:23:01;;;;;;;7.47;6.80;;;19.90;99.90;;;;;;5041513;28;20463;-83
2021/06/03 01:25:27;;;;;;;11.37;6.50;;;19.90;99.90;;;;;;5036852;28;20428;-82
2021/06/03 01:27:54;;;;;;;7.43;6.67;;;19.80;99.90;;;;;;5048786;28;20434;-83
2021/06/03 01:30:27;;;;;;;6.63;6.13;;;19.80;99.90;;;;;;5036703;28;20488;-83
2021/06/03 01:33:04;;;;;;;6.90;6.30;;;19.80;99.90;;;;;;5021525;28;20431;-83
2021/06/03 01:35:39;;;;;;;6.10;5.70;;;19.80;99.90;;;;;;5015766;28;20443;-83
2021/06/03 01:38:09;;;;;;;7.20;6.40;;;19.80;99.90;;;;;;5032559;28;20429;-83
2021/06/03 01:40:38;;;;;;;7.00;6.30;;;19.80;99.90;;;;;;5022957;28;20444;-83
2021/06/03 01:43:09;;;;;;;7.23;6.53;;;19.80;99.90;;;;;;5021227;28;20898;-83
2021/06/03 01:45:36;;;;;;;6.53;6.00;;;19.80;99.90;;;;;;4999556;28;20446;-83
2021/06/03 01:48:06;;;;;;;6.37;5.87;;;19.80;99.90;;;;;;5046222;28;20798;-83
2021/06/03 01:50:34;;;;;;;6.30;5.60;;;19.80;99.90;;;;;;5001481;28;20488;-83
2021/06/03 01:53:03;;;;;;;8.23;6.43;;;19.80;99.90;;;;;;5021177;28;20433;-83
2021/06/03 01:55:33;;;;;;;6.30;5.67;;;19.80;99.90;;;;;;5003056;28;20983;-83
2021/06/03 01:58:00;;;;;;;6.70;6.00;;;19.80;99.90;;;;;;5032870;28;20454;-83
2021/06/03 02:00:37;;;;;;;6.40;5.90;;;19.80;99.90;;;;;;5020662;28;20522;-83
2021/06/03 02:03:04;;;;;;;7.37;6.17;;;19.80;99.90;;;;;;5027391;28;20441;-83
2021/06/03 02:05:34;;;;;;;6.50;6.00;;;19.80;99.90;;;;;;5010633;28;20793;-83
2021/06/03 02:08:00;;;;;;;6.90;6.20;;;19.80;99.90;;;;;;5018529;28;20427;-83
2021/06/03 02:10:34;;;;;;;6.77;6.20;;;19.80;99.90;;;;;;5030724;28;20476;-82
2021/06/03 02:13:14;;;;;;;6.50;5.77;;;19.70;99.90;;;;;;4998752;28;20440;-83
2021/06/03 02:15:58;;;;;;;6.63;6.03;;;19.70;99.90;;;;;;5015582;28;20495;-83
2021/06/03 02:18:37;;;;;;;7.23;6.53;;;19.70;99.90;;;;;;5031240;28;20443;-83
2021/06/03 02:21:07;;;;;;;6.53;5.93;;;19.70;99.90;;;;;;5023338;28;20438;-83
2021/06/03 02:23:35;;;;;;;6.67;6.13;;;19.70;99.90;;;;;;5030989;28;20515;-83
2021/06/03 02:26:04;;;;;;;7.37;6.60;;;19.70;99.90;;;;;;4996266;28;20491;-83
2021/06/03 02:28:35;;;;;;;7.10;6.60;;;19.70;99.90;;;;;;5007663;28;20423;-83
2021/06/03 02:31:04;;;;;;;6.63;6.13;;;19.60;99.90;;;;;;5021634;28;20494;-83
2021/06/03 02:33:33;;;;;;;7.17;6.67;;;19.60;99.90;;;;;;5047337;28;20442;-83
2021/06/03 02:36:04;;;;;;;6.70;6.10;;;19.60;99.90;;;;;;5041251;28;20450;-83
2021/06/03 02:38:32;;;;;;;7.23;6.17;;;19.50;99.90;;;;;;5015031;28;20543;-83
2021/06/03 02:41:03;;;;;;;9.20;6.60;;;19.50;99.90;;;;;;5021922;28;20792;-83
2021/06/03 02:43:29;;;;;;;9.57;6.27;;;19.40;99.90;;;;;;5033606;28;20472;-83
2021/06/03 02:45:56;;;;;;;7.13;5.90;;;19.40;99.90;;;;;;5034032;28;20426;-83
2021/06/03 02:48:25;;;;;;;7.50;6.80;;;19.40;99.90;;;;;;5008133;28;20916;-83
2021/06/03 02:50:52;;;;;;;8.77;6.40;;;19.40;99.90;;;;;;5021911;28;20483;-83
2021/06/03 02:53:21;;;;;;;6.60;6.00;;;19.40;99.90;;;;;;5030959;28;20442;-83
2021/06/03 02:55:51;;;;;;;6.87;6.33;;;19.30;99.90;;;;;;5043017;28;20449;-83
2021/06/03 02:58:17;;;;;;;6.90;6.40;;;19.30;99.90;;;;;;5024077;28;20422;-83
2021/06/03 03:00:46;;;;;;;6.90;6.30;;;19.30;99.90;;;;;;5031516;28;20528;-83
2021/06/03 03:03:16;;;;;;;7.33;6.63;;;19.30;99.90;;;;;;5026655;28;20473;-83
2021/06/03 03:05:45;;;;;;;6.23;5.60;;;19.30;99.90;;;;;;5032445;28;20440;-83
2021/06/03 03:08:18;;;;;;;6.57;5.97;;;19.30;99.90;;;;;;5030505;28;20441;-83
2021/06/03 03:10:50;;;;;;;6.63;6.00;;;19.30;99.90;;;;;;5023380;28;20451;-84
2021/06/03 03:13:19;;;;;;;6.60;5.80;;;19.30;99.90;;;;;;5030113;28;20438;-83
2021/06/03 03:15:48;;;;;;;6.73;6.23;;;19.40;99.90;;;;;;5034744;28;20452;-83
2021/06/03 03:18:19;;;;;;;6.83;6.30;;;19.40;99.90;;;;;;5013602;28;20955;-83
2021/06/03 03:20:46;;;;;;;8.10;7.40;;;19.40;99.90;;;;;;5037046;28;20526;-83
2021/06/03 03:23:16;;;;;;;8.10;7.40;;;19.50;99.90;;;;;;5030985;28;20442;-83
2021/06/03 03:25:45;;;;;;;7.87;7.17;;;19.50;99.90;;;;;;5017095;28;20443;-84
2021/06/03 03:28:16;;;;;;;8.00;7.40;;;19.50;99.90;;;;;;5046279;28;20456;-84
2021/06/03 03:30:47;;;;;;;7.07;6.50;;;19.50;99.90;;;;;;5020548;28;20497;-83
2021/06/03 03:33:21;;;;;;;7.23;6.60;;;19.50;99.90;;;;;;5034106;28;20469;-83
2021/06/03 03:35:50;;;;;;;6.27;5.87;;;19.50;99.90;;;;;;5034345;28;20777;-83
2021/06/03 03:38:21;;;;;;;6.70;6.10;;;19.50;99.90;;;;;;5034906;28;20940;-84
2021/06/03 03:40:53;;;;;;;7.77;7.00;;;19.60;99.90;;;;;;5034036;28;20785;-83
2021/06/03 03:43:23;;;;;;;6.37;5.77;;;19.60;99.90;;;;;;5033266;28;20454;-84
2021/06/03 03:45:50;;;;;;;6.00;5.50;;;19.60;99.90;;;;;;5034346;28;20436;-83
2021/06/03 03:48:21;;;;;;;6.97;6.00;;;19.60;99.90;;;;;;5050513;28;20897;-83
2021/06/03 03:50:48;;;;;;;5.77;5.37;;;19.60;99.90;;;;;;5032206;28;20476;-83
2021/06/03 03:53:19;;;;;;;6.87;6.27;;;19.60;99.90;;;;;;5046979;28;21099;-83
2021/06/03 03:55:45;;;;;;;8.13;5.57;;;19.60;99.90;;;;;;5030880;28;20430;-83
2021/06/03 03:58:12;;;;;;;6.60;5.97;;;19.50;99.90;;;;;;5030182;28;20432;-82
2021/06/03 04:00:41;;;;;;;6.83;6.13;;;19.60;99.90;;;;;;5001768;28;20535;-82
2021/06/03 04:03:16;;;;;;;6.10;5.50;;;19.50;99.90;;;;;;5032421;28;20948;-82
2021/06/03 04:05:43;;;;;;;6.17;5.67;;;19.60;99.90;;;;;;5027562;28;20430;-82
2021/06/03 04:08:12;;;;;;;6.13;5.73;;;19.70;99.90;;;;;;5050426;28;20498;-83
2021/06/03 04:10:42;;;;;;;6.03;5.53;;;19.60;99.90;;;;;;5049678;28;20805;-82
2021/06/03 04:13:11;;;;;;;5.97;5.50;;;19.60;99.90;;;;;;5033007;28;20459;-83
2021/06/03 04:15:45;;;;;;;5.77;5.40;;;19.60;99.90;;;;;;5033517;28;20508;-82
2021/06/03 04:18:15;;;;;;;6.13;5.73;;;19.50;99.90;;;;;;5029708;28;20482;-82
2021/06/03 04:20:48;;;;;;;5.30;5.00;;;19.50;99.90;;;;;;5033496;28;20829;-83
2021/06/03 04:23:18;;;;;;;6.13;5.57;;;19.60;99.90;;;;;;5033151;28;20778;-83
2021/06/03 04:25:50;;;;;;;6.13;5.63;;;19.60;99.90;;;;;;5033540;28;20444;-82
2021/06/03 04:28:16;;;;;;;6.20;5.60;;;19.60;99.90;;;;;;5030508;28;20454;-82
2021/06/03 04:30:42;;;;;;;8.40;6.00;;;19.70;99.90;;;;;;5044130;28;20479;-83
2021/06/03 04:33:12;;;;;;;6.50;5.83;;;19.70;99.90;;;;;;5062514;28;20523;-82
2021/06/03 04:35:38;;;;;;;5.53;5.10;;;19.80;99.90;;;;;;5063626;28;20493;-83
2021/06/03 04:38:07;;;;;;;5.83;5.53;;;19.80;99.90;;;;;;5040682;28;20456;-82
2021/06/03 04:40:36;;;;;;;6.27;5.77;;;19.90;99.90;;;;;;5055467;28;20497;-83
2021/06/03 04:43:04;;;;;;;5.70;5.20;;;19.90;99.90;;;;;;5053328;28;20454;-82
2021/06/03 04:45:34;;;;;;;5.60;5.30;;;20.00;99.90;;;;;;5045361;28;20435;-82
2021/06/03 04:48:00;;;;;;;5.97;5.47;;;20.10;99.90;;;;;;5050834;28;20447;-83
2021/06/03 04:50:28;;;;;;;6.10;5.70;;;20.10;99.90;;;;;;5044410;28;20470;-83
2021/06/03 04:52:57;;;;;;;5.90;5.50;;;20.10;99.90;;;;;;5069166;28;20443;-82
2021/06/03 04:55:25;;;;;;;6.80;5.03;;;20.10;99.90;;;;;;5069206;28;20547;-82
2021/06/03 04:57:55;;;;;;;6.20;5.63;;;20.20;99.90;;;;;;5055342;28;20441;-82
2021/06/03 05:00:30;;;;;;;6.10;5.60;;;20.20;99.90;;;;;;5053833;28;20849;-83
2021/06/03 05:02:59;;;;;;;6.20;5.80;;;20.40;99.90;;;;;;5056370;28;20438;-82
2021/06/03 05:05:30;;;;;;;5.93;5.43;;;20.40;99.90;;;;;;5067187;28;20485;-83
2021/06/03 05:07:57;;;;;;;5.97;5.47;;;20.50;99.90;;;;;;5043370;28;20824;-82
2021/06/03 05:10:29;;;;;;;6.43;5.97;;;20.70;99.90;;;;;;5044128;28;20970;-83
2021/06/03 05:12:58;;;;;;;5.63;4.90;;;20.70;99.90;;;;;;5050335;28;20427;-82
2021/06/03 05:15:25;;;;;;;7.83;5.67;;;20.80;99.90;;;;;;5040275;28;20424;-83
2021/06/03 05:17:54;;;;;;;6.67;6.17;;;20.90;99.90;;;;;;5041387;28;20502;-82
2021/06/03 05:20:27;;;;;;;5.77;5.30;;;20.90;99.90;;;;;;5063587;28;20964;-82
2021/06/03 05:22:58;;;;;;;5.70;5.30;;;21.00;99.90;;;;;;5061542;28;20448;-82
2021/06/03 05:25:27;;;;;;;5.87;5.37;;;21.00;99.90;;;;;;5071147;28;20500;-82
2021/06/03 05:27:53;;;;;;;7.23;5.77;;;21.10;99.90;;;;;;5053164;28;20460;-83
2021/06/03 05:30:21;;;;;;;6.83;6.30;;;21.00;99.90;;;;;;5054178;28;20487;-82
2021/06/03 05:32:48;;;;;;;5.93;5.43;;;21.00;99.90;;;;;;5047264;28;20494;-82
2021/06/03 05:35:18;;;;;;;5.80;5.30;;;21.00;99.90;;;;;;5058243;28;20436;-82
2021/06/03 05:37:45;;;;;;;5.87;5.30;;;21.10;99.90;;;;;;5053067;28;20437;-82
2021/06/03 05:40:14;;;;;;;5.57;5.07;;;21.10;99.90;;;;;;5038862;28;20453;-82
2021/06/03 05:42:40;;;;;;;5.97;5.57;;;21.10;99.90;;;;;;5050872;28;20536;-82
2021/06/03 05:45:08;;;;;;;5.67;5.27;;;21.10;99.90;;;;;;5041927;28;20499;-82
2021/06/03 05:47:35;;;;;;;6.90;6.03;;;21.10;99.90;;;;;;5053929;28;21075;-82
2021/06/03 05:50:06;;;;;;;5.50;5.10;;;21.20;99.90;;;;;;5028402;28;20473;-83
2021/06/03 05:52:35;;;;;;;6.07;5.47;;;21.20;99.90;;;;;;5050482;28;20436;-83
2021/06/03 05:55:08;;;;;;;5.80;5.40;;;21.30;99.90;;;;;;5048465;28;20429;-83
2021/06/03 05:57:36;;;;;;;6.33;5.73;;;21.40;99.90;;;;;;5049993;28;21148;-82
2021/06/03 06:00:28;;;;;;;6.10;5.60;;;21.50;99.90;;;;;;5052269;28;20770;-83
2021/06/03 06:03:15;;;;;;;6.00;5.60;;;21.60;99.90;;;;;;5050606;28;20535;-82
2021/06/03 06:06:09;;;;;;;6.60;6.20;;;21.70;99.90;;;;;;5057392;28;20436;-82
2021/06/03 06:08:38;;;;;;;6.30;5.80;;;21.70;99.90;;;;;;5056470;28;20496;-82
2021/06/03 06:11:09;;;;;;;7.27;6.67;;;21.70;99.90;;;;;;5057837;28;20487;-83
2021/06/03 06:13:38;;;;;;;6.00;5.50;;;21.70;99.90;;;;;;5033039;28;20571;-83
2021/06/03 06:16:06;;;;;;;6.73;6.23;;;21.80;99.90;;;;;;5048677;28;20430;-83
2021/06/03 06:18:35;;;;;;;6.07;5.67;;;21.90;99.90;;;;;;5056418;28;20203;-83
2021/06/03 06:21:02;;;;;;;6.20;5.60;;;21.90;99.90;;;;;;5048698;28;20787;-83
2021/06/03 06:23:33;;;;;;;6.17;5.77;;;21.90;99.90;;;;;;5052235;28;20449;-83
2021/06/03 06:25:59;;;;;;;6.67;6.17;;;21.90;99.90;;;;;;5050676;28;21063;-82
2021/06/03 06:28:25;;;;;;;7.13;6.60;;;21.90;99.90;;;;;;5050276;28;20422;-83
2021/06/03 06:30:54;;;;;;;6.90;6.30;;;21.90;99.90;;;;;;5034641;28;20485;-83
2021/06/03 06:33:21;;;;;;;6.93;6.43;;;21.90;99.90;;;;;;5049875;28;20437;-82
2021/06/03 06:35:49;;;;;;;6.00;5.60;;;21.90;99.90;;;;;;5048753;28;20434;-83
2021/06/03 06:38:16;;;;;;;6.40;5.97;;;21.90;99.90;;;;;;5048847;28;20433;-83
2021/06/03 06:40:45;;;;;;;8.40;5.80;;;22.00;99.90;;;;;;5052224;28;20453;-82
2021/06/03 06:43:11;;;;;;;8.13;6.73;;;22.00;99.90;;;;;;5053310;28;20441;-82
2021/06/03 06:45:40;;;;;;;8.17;6.10;;;22.10;99.90;;;;;;5053300;28;20518;-82
2021/06/03 06:48:10;;;;;;;6.83;6.07;;;22.20;99.90;;;;;;5037280;28;20780;-83
2021/06/03 06:50:40;;;;;;;6.53;6.03;;;22.40;99.90;;;;;;5038229;28;20483;-82
2021/06/03 06:53:10;;;;;;;6.27;5.77;;;22.60;99.90;;;;;;5052920;28;20430;-82
2021/06/03 06:55:39;;;;;;;6.97;6.47;;;22.80;99.90;;;;;;5053759;28;20459;-82
2021/06/03 06:58:08;;;;;;;6.73;6.03;;;22.90;99.90;;;;;;5055174;28;20464;-81
2021/06/03 07:00:38;;;;;;;7.47;6.77;;;23.10;99.90;;;;;;5043960;28;20442;-82
2021/06/03 07:03:08;;;;;;;6.63;5.97;;;23.30;99.90;;;;;;5056239;28;20438;-82
2021/06/03 07:05:40;;;;;;;7.13;6.63;;;23.50;99.90;;;;;;5035394;28;20789;-82
2021/06/03 07:08:09;;;;;;;7.20;6.70;;;23.60;99.90;;;;;;5053050;28;20874;-82
2021/06/03 07:10:35;;;;;;;6.87;6.47;;;23.70;99.90;;;;;;5054002;28;20793;-83
2021/06/03 07:13:02;;;;;;;7.70;6.90;;;23.70;99.90;;;;;;5057115;28;20449;-83
2021/06/03 07:15:28;;;;;;;7.70;7.10;;;23.80;99.90;;;;;;5031880;28;20491;-83
2021/06/03 07:17:55;;;;;;;10.03;7.90;;;24.00;99.90;;;;;;5034765;28;20479;-83
2021/06/03 07:20:22;;;;;;;7.27;6.77;;;24.10;99.90;;;;;;5052113;28;20450;-83
2021/06/03 07:22:54;;;;;;;7.77;7.17;;;24.20;99.80;;;;;;5053137;28;20438;-82
2021/06/03 07:25:25;;;;;;;7.83;7.23;;;24.20;99.90;;;;;;5037671;28;20426;-82
2021/06/03 07:27:54;;;;;;;7.50;6.90;;;24.10;99.90;;;;;;5048740;28;20549;-83
2021/06/03 07:30:22;;;;;;;8.00;7.20;;;24.00;99.90;;;;;;5041669;28;20483;-83
2021/06/03 07:32:49;;;;;;;7.67;7.00;;;24.00;99.90;;;;;;5052108;28;20442;-84
2021/06/03 07:35:20;;;;;;;7.90;7.20;;;23.90;99.90;;;;;;5056461;28;20491;-84
2021/06/03 07:37:47;;;;;;;7.87;7.27;;;24.00;99.90;;;;;;5055775;28;20442;-83
2021/06/03 07:40:16;;;;;;;8.47;7.63;;;24.00;99.90;;;;;;5057946;28;20777;-83
2021/06/03 07:42:47;;;;;;;8.70;7.90;;;24.00;99.90;;;;;;5053904;28;20442;-83
2021/06/03 07:45:17;;;;;;;7.90;7.40;;;24.00;99.90;;;;;;5046309;28;20430;-84
2021/06/03 07:47:48;;;;;;;8.83;8.10;;;24.00;99.90;;;;;;5054398;28;20423;-84
2021/06/03 07:50:14;;;;;;;8.37;7.53;;;24.10;99.90;;;;;;5036454;28;20462;-84
2021/06/03 07:52:41;;;;;;;8.13;7.23;;;24.10;99.90;;;;;;5052664;28;20441;-84
2021/06/03 07:55:12;;;;;;;8.47;7.73;;;24.00;99.90;;;;;;5053296;28;20459;-83
2021/06/03 07:57:38;;;;;;;9.20;8.30;;;24.10;99.90;;;;;;5057591;28;20462;-83
2021/06/03 08:00:07;;;;;;;8.17;7.57;;;24.10;99.90;;;;;;5054222;28;20463;-84
2021/06/03 08:02:44;;;;;;;8.43;7.77;;;24.00;99.90;;;;;;5054419;28;20449;-83
2021/06/03 08:05:12;;;;;;;8.63;8.03;;;24.00;99.90;;;;;;5050925;28;20521;-83
2021/06/03 08:07:40;;;;;;;7.77;7.07;;;24.00;99.90;;;;;;5054088;28;20491;-84
2021/06/03 08:10:11;;;;;;;8.63;7.93;;;24.00;99.90;;;;;;5054655;28;20462;-83
2021/06/03 08:12:37;;;;;;;9.57;8.77;;;24.10;99.90;;;;;;5054077;28;20882;-83
2021/06/03 08:15:06;;;;;;;9.87;8.70;;;24.20;99.90;;;;;;5053214;28;20572;-84
2021/06/03 08:17:37;;;;;;;9.00;8.10;;;24.30;99.90;;;;;;5051128;28;20434;-84
2021/06/03 08:20:08;;;;;;;8.50;7.90;;;24.40;99.90;;;;;;5062666;28;20456;-84
2021/06/03 08:22:34;;;;;;;8.20;7.53;;;24.40;99.90;;;;;;5053176;28;20426;-83
2021/06/03 08:25:00;;;;;;;8.27;7.50;;;24.40;99.90;;;;;;5053998;28;20446;-82
2021/06/03 08:27:26;;;;;;;8.90;8.20;;;24.40;99.90;;;;;;5042976;28;20452;-82
2021/06/03 08:29:52;;;;;;;8.37;7.77;;;24.40;99.90;;;;;;5064349;28;20595;-82
2021/06/03 08:32:23;;;;;;;7.80;7.20;;;24.30;99.90;;;;;;5052750;28;20488;-83
2021/06/03 08:34:51;;;;;;;8.57;7.73;;;24.30;99.90;;;;;;5053995;28;20426;-82
2021/06/03 08:37:19;;;;;;;7.40;6.90;;;24.40;99.90;;;;;;5035938;28;20447;-82
2021/06/03 08:39:49;;;;;;;8.80;7.93;;;24.40;99.90;;;;;;5053448;28;20427;-83
2021/06/03 08:42:15;;;;;;;6.90;6.40;;;24.30;99.90;;;;;;5053508;28;20632;-83
2021/06/03 08:44:42;;;;;;;7.70;6.87;;;24.30;99.90;;;;;;5048707;28;20925;-82
2021/06/03 08:47:12;;;;;;;7.30;6.80;;;24.20;99.90;;;;;;5053310;28;20430;-83
2021/06/03 08:49:40;;;;;;;7.10;6.50;;;24.00;99.90;;;;;;5052474;28;20470;-83
2021/06/03 08:52:07;;;;;;;7.33;6.83;;;24.00;99.90;;;;;;5053391;28;20457;-83
2021/06/03 08:54:39;;;;;;;9.20;7.20;;;24.00;99.90;;;;;;5052268;28;20422;-83
2021/06/03 08:57:10;;;;;;;8.63;7.90;;;23.90;99.90;;;;;;5059364;28;20438;-83
2021/06/03 08:59:36;;;;;;;8.63;7.83;;;23.80;99.90;;;;;;5053358;28;20460;-83
2021/06/03 09:02:07;;;;;;;7.93;7.23;;;23.70;99.90;;;;;;5052030;28;20798;-83
2021/06/03 09:04:33;;;;;;;8.27;7.53;;;23.70;99.90;;;;;;5043657;28;20434;-83
2021/06/03 09:06:59;;;;;;;8.43;7.73;;;23.70;99.90;;;;;;5060458;28;20417;-83
2021/06/03 09:09:31;;;;;;;8.10;7.50;;;23.80;99.90;;;;;;5050348;28;20481;-82
2021/06/03 09:12:14;;;;;;;8.87;8.07;;;24.10;99.90;;;;;;5052697;28;20883;-82
2021/06/03 09:14:44;;;;;;;8.77;7.90;;;24.20;99.90;;;;;;5051824;28;20638;-82
2021/06/03 09:17:12;;;;;;;8.47;7.50;;;24.20;99.90;;;;;;5058287;28;20442;-82
2021/06/03 09:19:53;;;;;;;8.47;7.70;;;24.30;99.90;;;;;;5053299;28;20430;-82
2021/06/03 09:22:41;;;;;;;7.80;7.30;;;24.50;99.90;;;;;;5052648;28;20870;-83
2021/06/03 09:25:39;;;;;;;9.37;8.10;;;24.60;99.90;;;;;;5052784;28;20426;-81
2021/06/03 09:28:25;;;;;;;8.90;8.20;;;24.90;99.90;;;;;;5041448;28;20545;-82
2021/06/03 09:31:01;;;;;;;9.37;8.57;;;25.20;99.90;;;;;;5057559;28;20477;-82
2021/06/03 09:33:47;;;;;;;10.50;8.20;;;25.40;99.90;;;;;;5052044;28;20568;-83
2021/06/03 09:36:24;;;;;;;8.70;7.87;;;25.50;99.90;;;;;;5036541;28;20972;-82
2021/06/03 09:39:16;;;;;;;9.93;9.03;;;25.70;99.90;;;;;;5048402;28;20422;-85
2021/06/03 09:41:54;;;;;;;10.00;9.00;;;26.00;99.90;;;;;;5049756;28;20450;-82
2021/06/03 09:44:27;;;;;;;10.13;9.33;;;26.10;99.90;;;;;;5035069;28;20450;-83
2021/06/03 09:47:13;;;;;;;9.60;8.57;;;26.00;99.90;;;;;;5057401;28;20432;-84
2021/06/03 09:49:46;;;;;;;9.63;8.93;;;26.10;99.90;;;;;;5053042;28;20550;-83
2021/06/03 09:52:15;;;;;;;9.00;8.20;;;26.00;99.90;;;;;;5041264;28;20519;-84
2021/06/03 09:54:51;;;;;;;11.10;10.30;;;26.00;99.90;;;;;;5052722;28;20435;-83
2021/06/03 09:57:20;;;;;;;10.03;8.93;;;25.80;99.90;;;;;;5051854;28;20438;-85
2021/06/03 09:59:57;;;;;;;8.97;8.27;;;25.70;99.90;;;;;;5041747;28;20422;-84
2021/06/03 10:02:23;;;;;;;10.10;9.10;;;25.70;99.90;;;;;;5057480;28;20985;-84
2021/06/03 10:04:57;;;;;;;10.10;9.17;;;25.80;99.90;;;;;;5046764;28;20774;-82
2021/06/03 10:07:26;;;;;;;10.30;9.50;;;25.80;99.90;;;;;;5035603;28;20450;-82
2021/06/03 10:10:10;;;;;;;10.47;8.97;;;25.70;99.90;;;;;;5051831;28;20446;-82
2021/06/03 10:12:42;;;;;;;9.23;8.27;;;25.40;99.90;;;;;;5058641;28;20492;-82
2021/06/03 10:15:19;;;;;;;9.47;8.30;;;25.30;99.90;;;;;;5057248;28;20494;-82
2021/06/03 10:18:03;;;;;;;8.87;8.10;;;25.20;99.90;;;;;;5043377;28;20430;-82
2021/06/03 10:20:38;;;;;;;9.30;8.27;;;25.20;99.90;;;;;;5053633;28;20445;-82
2021/06/03 10:23:09;;;;;;;10.20;8.43;;;25.20;99.90;;;;;;5051641;28;20445;-83
2021/06/03 10:25:40;;;;;;;7.87;7.23;;;25.20;99.90;;;;;;5050267;28;20928;-82
2021/06/03 10:28:14;;;;;;;8.70;7.90;;;25.20;99.90;;;;;;5047070;28;20503;-82
2021/06/03 10:30:47;;;;;;;8.83;7.90;;;25.10;99.90;;;;;;5054185;28;20482;-83
2021/06/03 10:33:16;;;;;;;11.93;10.00;;;25.00;99.90;;;;;;5020584;28;20444;-83
2021/06/03 10:35:46;;;;;;;9.23;8.43;;;25.00;99.90;;;;;;5056090;28;20434;-83
2021/06/03 10:38:15;;;;;;;10.27;9.37;;;24.80;99.90;;;;;;5057346;28;20867;-83
2021/06/03 10:40:55;;;;;;;10.70;9.73;;;24.70;99.90;;;;;;5057399;28;20512;-83
2021/06/03 10:43:25;;;;;;;11.07;9.97;;;24.50;99.90;;;;;;5051558;28;20441;-84
2021/06/03 10:45:51;;;;;;;12.73;10.03;;;24.50;99.90;;;;;;5053348;28;20439;-83
2021/06/03 10:48:17;;;;;;;10.10;9.10;;;24.30;99.90;;;;;;5057592;28;20841;-84
2021/06/03 10:50:52;;;;;;;10.50;9.60;;;24.30;99.90;;;;;;5060020;28;20458;-84
2021/06/03 10:53:25;;;;;;;9.67;8.67;;;24.30;99.90;;;;;;5060769;28;20959;-83
2021/06/03 10:56:08;;;;;;;13.47;7.83;;;24.50;99.90;;;;;;5038752;28;20510;-83
2021/06/03 10:58:37;;;;;;;7.37;6.63;;;24.50;99.90;;;;;;5058982;28;20503;-83
2021/06/03 11:01:07;;;;;;;7.77;7.07;;;24.50;99.90;;;;;;5059858;28;20429;-83
2021/06/03 11:03:38;;;;;;;8.03;7.40;;;24.50;99.90;;;;;;5061397;28;20440;-84
2021/06/03 11:06:13;;;;;;;10.90;8.40;;;24.60;99.90;;;;;;5052314;28;20441;-84
2021/06/03 11:08:50;;;;;;;9.40;8.50;;;24.70;99.90;;;;;;5055702;28;20795;-84
2021/06/03 11:11:16;;;;;;;8.10;7.30;;;24.70;99.90;;;;;;5051477;28;20565;-85
2021/06/03 11:13:46;;;;;;;10.77;7.83;;;24.90;99.90;;;;;;5054500;28;20426;-84
2021/06/03 11:16:27;;;;;;;7.87;6.83;;;25.10;99.90;;;;;;5056848;28;20452;-85
2021/06/03 11:18:53;;;;;;;7.77;7.00;;;25.30;99.90;;;;;;5041821;28;20430;-84
2021/06/03 11:21:35;;;;;;;7.50;6.80;;;25.60;99.90;;;;;;5059234;28;20456;-84
2021/06/03 11:24:08;;;;;;;7.40;6.90;;;26.10;99.90;;;;;;5056428;28;20463;-84
2021/06/03 11:26:56;;;;;;;6.43;5.90;;;26.50;99.90;;;;;;5054045;28;20433;-84
2021/06/03 11:29:33;;;;;;;6.40;6.00;;;26.80;99.90;;;;;;5055523;28;20990;-83
2021/06/03 11:32:05;;;;;;;6.50;6.00;;;27.20;99.90;;;;;;5043783;28;20438;-83
2021/06/03 11:34:40;;;;;;;6.70;6.13;;;27.40;99.60;;;;;;5032523;28;20443;-84
2021/06/03 11:37:39;;;;;;;7.30;6.73;;;27.50;98.90;;;;;;5041342;28;20433;-83
2021/06/03 11:40:05;;;;;;;5.93;5.63;;;27.70;97.80;;;;;;5025077;28;20933;-84
2021/06/03 11:42:46;;;;;;;7.00;6.50;;;27.70;97.50;;;;;;5052912;28;20441;-84
2021/06/03 11:45:20;;;;;;;7.77;7.37;;;27.80;96.70;;;;;;5041418;28;20445;-84
2021/06/03 11:47:46;;;;;;;6.43;6.03;;;27.50;96.90;;;;;;5036749;28;20450;-84
2021/06/03 11:50:17;;;;;;;6.80;6.30;;;27.40;97.50;;;;;;5050071;28;20813;-83
2021/06/03 11:52:53;;;;;;;6.97;6.57;;;27.60;97.30;;;;;;5032923;28;20448;-85
2021/06/03 11:55:56;;;;;;;6.80;6.40;;;27.80;97.60;;;;;;5041341;28;20500;-85
2021/06/03 11:58:44;;;;;;;6.60;6.20;;;28.10;95.60;;;;;;5035378;28;20528;-84
2021/06/03 12:01:16;;;;;;;7.37;6.87;;;28.50;96.60;;;;;;5013450;28;20871;-84
2021/06/03 12:03:46;;;;;;;7.70;7.17;;;28.80;93.80;;;;;;5041418;28;20439;-84
2021/06/03 12:06:34;;;;;;;7.93;7.43;;;28.50;94.50;;;;;;5043799;28;20501;-84
2021/06/03 12:09:21;;;;;;;7.73;7.17;;;28.40;94.90;;;;;;5041688;28;20932;-85
2021/06/03 12:11:51;;;;;;;7.83;7.30;;;28.30;94.60;;;;;;5050400;28;20446;-85
2021/06/03 12:14:29;;;;;;;8.17;7.57;;;28.30;96.10;;;;;;5036372;28;20907;-85
2021/06/03 12:16:59;;;;;;;8.47;7.70;;;28.40;96.40;;;;;;5052651;28;20418;-84
2021/06/03 12:19:51;;;;;;;8.10;7.40;;;28.50;95.50;;;;;;5023761;28;20449;-85
2021/06/03 12:22:21;;;;;;;8.33;7.73;;;28.70;94.50;;;;;;4998596;28;20455;-85
2021/06/03 12:24:58;;;;;;;8.67;7.80;;;29.00;94.40;;;;;;5030731;28;20500;-84
2021/06/03 12:27:24;;;;;;;7.53;6.83;;;28.90;94.00;;;;;;5037458;28;21151;-84
2021/06/03 12:29:54;;;;;;;7.50;7.00;;;29.00;94.20;;;;;;5046248;28;20506;-85
2021/06/03 12:32:21;;;;;;;8.10;7.50;;;29.40;94.80;;;;;;5053437;28;20906;-86
2021/06/03 12:34:50;;;;;;;8.10;7.60;;;29.50;93.60;;;;;;5047603;28;20525;-85
2021/06/03 12:37:33;;;;;;;8.53;7.93;;;29.50;93.60;;;;;;5057475;28;20467;-84
2021/06/03 12:40:23;;;;;;;7.57;7.07;;;29.40;91.60;;;;;;5032466;28;20438;-83
2021/06/03 12:42:49;;;;;;;8.53;7.83;;;29.20;92.30;;;;;;5062497;28;20422;-85
2021/06/03 12:45:18;;;;;;;7.83;7.13;;;29.40;92.70;;;;;;5063968;28;20523;-86
2021/06/03 12:47:44;;;;;;;7.77;7.17;;;29.70;92.90;;;;;;5067928;28;20758;-85
2021/06/03 12:50:17;;;;;;;9.50;8.70;;;30.20;90.60;;;;;;5043008;28;20474;-87
2021/06/03 12:52:45;;;;;;;8.87;8.33;;;30.70;90.80;;;;;;5055202;28;20516;-89
2021/06/03 12:55:12;;;;;;;9.10;8.30;;;31.00;88.20;;;;;;5024394;28;21178;-84
2021/06/03 12:57:39;;;;;;;9.20;8.57;;;31.00;85.20;;;;;;5062036;28;20466;-86
2021/06/03 13:00:19;;;;;;;8.37;7.77;;;30.80;87.90;;;;;;5052955;28;20927;-85
2021/06/03 13:02:48;;;;;;;8.67;7.97;;;30.90;88.40;;;;;;5052418;28;20989;-87
2021/06/03 13:05:21;;;;;;;9.00;8.20;;;31.20;86.10;;;;;;5050823;28;20438;-86